createdAt,value
2018-04-18T00:01:57.090Z,102867.92
2018-04-18T00:04:24.595Z,102865.77
2018-04-18T00:06:52.036Z,102864.43
2018-04-18T00:09:19.516Z,102872.81
2018-04-18T00:11:46.969Z,102873.04
2018-04-18T00:14:14.452Z,102876.69
2018-04-18T00:16:41.905Z,102877.17
2018-04-18T00:19:09.428Z,102876.73
2018-04-18T00:21:36.873Z,102879.61
2018-04-18T00:24:04.335Z,102884.96
2018-04-18T00:26:31.820Z,102878.50
2018-04-18T00:28:59.262Z,102880.28
2018-04-18T00:31:26.815Z,102874.63
2018-04-18T00:33:54.367Z,102874.95
2018-04-18T00:36:21.853Z,102877.41
2018-04-18T00:38:49.304Z,102884.62
2018-04-18T00:41:16.790Z,102877.91
2018-04-18T00:43:44.248Z,102883.30
2018-04-18T00:46:11.760Z,102886.48
2018-04-18T00:48:39.211Z,102886.02
2018-04-18T00:51:06.692Z,102888.61
2018-04-18T00:53:34.148Z,102884.52
2018-04-18T00:56:01.639Z,102886.24
2018-04-18T00:58:29.099Z,102884.62
2018-04-18T01:00:56.579Z,102887.27
2018-04-18T01:03:24.067Z,102886.20
2018-04-18T01:05:51.548Z,102887.52
2018-04-18T01:08:18.999Z,102888.75
2018-04-18T01:10:46.527Z,102887.39
2018-04-18T01:13:13.980Z,102890.07
2018-04-18T01:15:41.461Z,102894.81
2018-04-18T01:18:08.911Z,102891.78
2018-04-18T01:20:36.392Z,102891.47
2018-04-18T01:23:03.843Z,102896.12
2018-04-18T01:25:31.327Z,102899.91
2018-04-18T01:27:58.784Z,102901.83
2018-04-18T01:30:26.596Z,102900.80
2018-04-18T01:32:54.046Z,102902.20
2018-04-18T01:35:21.500Z,102905.40
2018-04-18T01:37:49.064Z,102906.95
2018-04-18T01:40:16.623Z,102904.48
2018-04-18T01:42:44.103Z,102912.55
2018-04-18T01:45:11.548Z,102908.05
2018-04-18T01:47:39.015Z,102909.17
2018-04-18T01:50:06.464Z,102908.58
2018-04-18T01:52:33.939Z,102910.22
2018-04-18T01:55:01.389Z,102921.33
2018-04-18T01:57:28.866Z,102914.34
2018-04-18T01:59:56.315Z,102912.81
2018-04-18T02:02:23.788Z,102918.86
2018-04-18T02:04:51.244Z,102917.91
2018-04-18T02:07:18.752Z,102917.27
2018-04-18T02:09:46.201Z,102918.48
2018-04-18T02:12:13.682Z,102924.87
2018-04-18T02:14:41.159Z,102931.54
2018-04-18T02:17:08.680Z,102930.63
2018-04-18T02:19:36.123Z,102930.83
2018-04-18T02:22:03.603Z,102929.23
2018-04-18T02:24:31.164Z,102926.98
2018-04-18T02:26:58.652Z,102933.50
2018-04-18T02:29:26.116Z,102933.17
2018-04-18T02:31:53.566Z,102935.15
2018-04-18T02:34:21.062Z,102937.49
2018-04-18T02:36:48.510Z,102939.23
2018-04-18T02:39:16.002Z,102933.88
2018-04-18T02:41:44.383Z,102933.03
2018-04-18T02:44:11.864Z,102940.16
2018-04-18T02:46:39.316Z,102937.73
2018-04-18T02:49:06.804Z,102943.63
2018-04-18T02:51:34.256Z,102935.37
2018-04-18T02:54:01.742Z,102937.77
2018-04-18T02:56:29.198Z,102935.05
2018-04-18T02:58:56.685Z,102933.45
2018-04-18T03:01:24.139Z,102929.38
2018-04-18T03:03:51.633Z,102937.73
2018-04-18T03:06:19.144Z,102930.59
2018-04-18T03:08:46.596Z,102933.88
2018-04-18T03:11:14.079Z,102931.72
2018-04-18T03:13:41.530Z,102939.69
2018-04-18T03:16:09.004Z,102936.45
2018-04-18T03:18:36.461Z,102933.88
2018-04-18T03:21:03.984Z,102934.21
2018-04-18T03:23:31.437Z,102937.73
2018-04-18T03:25:58.915Z,102942.31
2018-04-18T03:28:26.364Z,102942.27
2018-04-18T03:30:53.848Z,102944.57
2018-04-18T03:33:21.300Z,102942.55
2018-04-18T03:35:48.775Z,102941.57
2018-04-18T03:38:16.237Z,102943.07
2018-04-18T03:40:43.725Z,102947.39
2018-04-18T03:43:11.175Z,102941.94
2018-04-18T03:45:38.657Z,102941.19
2018-04-18T03:48:06.119Z,102944.23
2018-04-18T03:50:33.623Z,102945.21
2018-04-18T03:53:01.132Z,102944.52
2018-04-18T03:55:28.592Z,102948.13
2018-04-18T03:57:56.084Z,102950.56
2018-04-18T04:00:23.548Z,102949.72
2018-04-18T04:02:51.039Z,102946.39
2018-04-18T04:05:18.503Z,102945.87
2018-04-18T04:07:45.991Z,102950.75
2018-04-18T04:10:13.449Z,102952.90
2018-04-18T04:12:40.937Z,102954.75
2018-04-18T04:15:08.396Z,102951.32
2018-04-18T04:17:47.623Z,102952.75
2018-04-18T04:20:26.755Z,102955.25
2018-04-18T04:23:06.156Z,102963.84
2018-04-18T04:25:33.650Z,102967.22
2018-04-18T04:28:01.989Z,102969.34
2018-04-18T04:30:29.444Z,102976.30
2018-04-18T04:32:56.946Z,102973.09
2018-04-18T04:35:24.456Z,102970.58
2018-04-18T04:37:51.940Z,102979.27
2018-04-18T04:40:19.403Z,102983.33
2018-04-18T04:42:46.932Z,102982.72
2018-04-18T04:45:14.488Z,102988.08
2018-04-18T04:47:41.984Z,102986.25
2018-04-18T04:50:09.435Z,102992.63
2018-04-18T04:52:36.919Z,102986.58
2018-04-18T04:55:04.376Z,102991.73
2018-04-18T04:57:32.891Z,102989.34
2018-04-18T05:00:00.344Z,102996.33
2018-04-18T05:02:27.910Z,102996.70
2018-04-18T05:04:55.375Z,103003.02
2018-04-18T05:07:22.871Z,102999.67
2018-04-18T05:09:51.263Z,103009.33
2018-04-18T05:12:18.721Z,103014.44
2018-04-18T05:14:46.212Z,103011.11
2018-04-18T05:17:13.668Z,103015.90
2018-04-18T05:19:41.155Z,103025.38
2018-04-18T05:22:08.620Z,103020.38
2018-04-18T05:24:36.108Z,103028.12
2018-04-18T05:27:03.603Z,103030.19
2018-04-18T05:29:31.083Z,103028.12
2018-04-18T05:31:58.537Z,103029.17
2018-04-18T05:34:26.024Z,103037.31
2018-04-18T05:36:53.532Z,103035.73
2018-04-18T05:39:21.013Z,103039.11
2018-04-18T05:41:48.468Z,103036.81
2018-04-18T05:44:15.960Z,103041.03
2018-04-18T05:46:43.429Z,103049.81
2018-04-18T05:49:10.915Z,103048.70
2018-04-18T05:51:38.369Z,103051.33
2018-04-18T05:54:05.880Z,103057.24
2018-04-18T05:56:33.363Z,103061.67
2018-04-18T05:59:00.855Z,103066.64
2018-04-18T06:01:28.311Z,103073.96
2018-04-18T06:03:55.791Z,103067.27
2018-04-18T06:06:23.251Z,103075.41
2018-04-18T06:08:50.739Z,103073.23
2018-04-18T06:11:18.199Z,103070.50
2018-04-18T06:13:45.664Z,103072.92
2018-04-18T06:16:13.151Z,103078.08
2018-04-18T06:18:40.615Z,103078.61
2018-04-18T06:21:08.100Z,103077.30
2018-04-18T06:23:35.559Z,103079.88
2018-04-18T06:26:03.060Z,103079.56
2018-04-18T06:28:30.519Z,103083.81
2018-04-18T06:30:58.008Z,103088.06
2018-04-18T06:33:26.449Z,103097.17
2018-04-18T06:35:53.944Z,103097.77
2018-04-18T06:38:21.400Z,103097.02
2018-04-18T06:40:48.884Z,103094.39
2018-04-18T06:43:17.295Z,103098.55
2018-04-18T06:45:44.780Z,103098.06
2018-04-18T06:48:13.142Z,103095.88
2018-04-18T06:50:40.637Z,103100.58
2018-04-18T06:53:08.143Z,103101.07
2018-04-18T06:55:35.595Z,103099.48
2018-04-18T06:58:03.083Z,103103.02
2018-04-18T07:00:30.531Z,103112.88
2018-04-18T07:02:58.015Z,103111.58
2018-04-18T07:05:25.495Z,103118.66
2018-04-18T07:07:53.007Z,103119.77
2018-04-18T07:10:20.465Z,103125.30
2018-04-18T07:12:47.955Z,103121.83
2018-04-18T07:15:15.415Z,103125.45
2018-04-18T07:17:42.897Z,103127.85
2018-04-18T07:20:11.247Z,103130.39
2018-04-18T07:22:38.724Z,103136.94
2018-04-18T07:25:06.199Z,103126.34
2018-04-18T07:27:33.707Z,103133.88
2018-04-18T07:30:01.178Z,103137.69
2018-04-18T07:32:28.755Z,103132.43
2018-04-18T07:34:59.562Z,103127.36
2018-04-18T07:37:27.043Z,103123.68
2018-04-18T07:39:54.495Z,103135.92
2018-04-18T07:42:21.980Z,103138.04
2018-04-18T07:44:49.516Z,103137.59
2018-04-18T07:47:17.052Z,103132.98
2018-04-18T07:49:44.503Z,103135.14
2018-04-18T07:52:11.964Z,103143.48
2018-04-18T07:54:39.447Z,103135.06
2018-04-18T07:57:06.905Z,103136.98
2018-04-18T07:59:34.403Z,103140.44
2018-04-18T08:02:01.859Z,103135.19
2018-04-18T08:04:29.343Z,103140.30
2018-04-18T08:06:56.803Z,103141.91
2018-04-18T08:09:25.250Z,103140.05
2018-04-18T08:11:52.679Z,103154.06
2018-04-18T08:14:20.162Z,103148.70
2018-04-18T08:16:47.612Z,103150.52
2018-04-18T08:19:15.091Z,103147.84
2018-04-18T08:21:42.556Z,103153.16
2018-04-18T08:24:10.035Z,103155.45
2018-04-18T08:26:37.487Z,103145.57
2018-04-18T08:29:04.983Z,103142.83
2018-04-18T08:31:32.427Z,103147.16
2018-04-18T08:34:00.189Z,103150.02
2018-04-18T08:36:27.644Z,103159.94
2018-04-18T08:38:55.129Z,103159.56
2018-04-18T08:41:22.617Z,103159.33
2018-04-18T08:43:50.072Z,103150.41
2018-04-18T08:46:17.556Z,103142.59
2018-04-18T08:48:45.015Z,103149.84
2018-04-18T08:51:12.588Z,103155.00
2018-04-18T08:53:40.048Z,103164.58
2018-04-18T08:56:07.532Z,103164.35
2018-04-18T08:58:35.060Z,103170.94
2018-04-18T09:01:02.547Z,103166.90
2018-04-18T09:03:30.075Z,103161.51
2018-04-18T09:05:58.559Z,103170.98
2018-04-18T09:08:26.999Z,103163.83
2018-04-18T09:10:54.485Z,103166.45
2018-04-18T09:13:21.939Z,103164.87
2018-04-18T09:15:49.478Z,103174.27
2018-04-18T09:18:16.968Z,103165.91
2018-04-18T09:20:44.475Z,103177.58
2018-04-18T09:23:11.928Z,103169.49
2018-04-18T09:25:39.388Z,103169.49
2018-04-18T09:28:06.863Z,103172.44
2018-04-18T09:30:35.241Z,103164.93
2018-04-18T09:33:02.729Z,103164.47
2018-04-18T09:35:30.186Z,103180.79
2018-04-18T09:37:57.671Z,103164.63
2018-04-18T09:40:25.124Z,103172.24
2018-04-18T09:42:52.608Z,103167.14
2018-04-18T09:45:20.063Z,103168.17
2018-04-18T09:47:47.572Z,103165.69
2018-04-18T09:50:15.021Z,103168.05
2018-04-18T09:52:43.540Z,103170.92
2018-04-18T09:55:10.991Z,103180.41
2018-04-18T09:57:38.436Z,103172.69
2018-04-18T10:00:05.911Z,103166.41
2018-04-18T10:02:37.325Z,103169.61
2018-04-18T10:05:07.772Z,103167.22
2018-04-18T10:07:35.228Z,103175.45
2018-04-18T10:10:02.723Z,103172.78
2018-04-18T10:12:30.166Z,103171.22
2018-04-18T10:14:57.693Z,103165.59
2018-04-18T10:17:25.142Z,103175.07
2018-04-18T10:19:52.621Z,103168.02
2018-04-18T10:22:20.091Z,103177.55
2018-04-18T10:24:48.535Z,103184.42
2018-04-18T10:27:15.979Z,103174.61
2018-04-18T10:29:43.459Z,103173.79
2018-04-18T10:32:10.908Z,103174.86
2018-04-18T10:34:38.387Z,103168.54
2018-04-18T10:37:05.836Z,103168.82
2018-04-18T10:39:33.322Z,103166.11
2018-04-18T10:42:00.771Z,103184.12
2018-04-18T10:44:28.297Z,103174.12
2018-04-18T10:46:55.743Z,103177.30
2018-04-18T10:49:23.223Z,103169.84
2018-04-18T10:51:50.679Z,103164.73
2018-04-18T10:54:18.148Z,103163.52
2018-04-18T10:56:45.596Z,103159.55
2018-04-18T10:59:13.136Z,103162.17
2018-04-18T11:01:40.600Z,103164.71
2018-04-18T11:04:08.077Z,103167.80
2018-04-18T11:06:36.506Z,103168.03
2018-04-18T11:09:04.029Z,103160.77
2018-04-18T11:11:31.479Z,103168.87
2018-04-18T11:13:58.934Z,103158.84
2018-04-18T11:16:26.428Z,103162.81
2018-04-18T11:18:53.875Z,103175.48
2018-04-18T11:21:21.359Z,103171.08
2018-04-18T11:23:48.807Z,103174.87
2018-04-18T11:26:16.287Z,103173.17
2018-04-18T11:28:43.740Z,103180.59
2018-04-18T11:31:11.219Z,103188.27
2018-04-18T11:33:39.655Z,103171.77
2018-04-18T11:36:07.139Z,103179.01
2018-04-18T11:38:34.583Z,103176.91
2018-04-18T11:41:02.088Z,103169.61
2018-04-18T11:43:29.544Z,103184.27
2018-04-18T11:45:57.024Z,103192.72
2018-04-18T11:48:24.466Z,103172.02
2018-04-18T11:50:51.979Z,103182.09
2018-04-18T11:53:19.424Z,103178.84
2018-04-18T11:55:46.903Z,103173.31
2018-04-18T11:58:15.338Z,103163.87
2018-04-18T12:00:42.787Z,103182.14
2018-04-18T12:03:15.091Z,103186.48
2018-04-18T12:05:42.535Z,103178.03
2018-04-18T12:08:09.989Z,103185.64
2018-04-18T12:10:37.448Z,103186.31
2018-04-18T12:13:04.925Z,103188.63
2018-04-18T12:15:32.351Z,103187.77
2018-04-18T12:17:59.801Z,103191.94
2018-04-18T12:20:27.226Z,103199.78
2018-04-18T12:22:55.641Z,103194.62
2018-04-18T12:25:23.083Z,103199.80
2018-04-18T12:27:50.559Z,103190.23
2018-04-18T12:30:18.047Z,103197.56
2018-04-18T12:32:45.521Z,103197.20
2018-04-18T12:35:13.060Z,103198.88
2018-04-18T12:37:40.531Z,103186.75
2018-04-18T12:40:07.987Z,103197.30
2018-04-18T12:42:35.440Z,103190.42
2018-04-18T12:45:02.936Z,103194.09
2018-04-18T12:47:30.385Z,103188.14
2018-04-18T12:49:57.875Z,103195.31
2018-04-18T12:52:25.324Z,103187.89
2018-04-18T12:54:52.804Z,103189.13
2018-04-18T12:57:20.617Z,103186.67
2018-04-18T12:59:48.131Z,103189.83
2018-04-18T13:02:15.580Z,103191.16
2018-04-18T13:04:43.113Z,103184.81
2018-04-18T13:07:10.573Z,103196.81
2018-04-18T13:09:38.048Z,103189.33
2018-04-18T13:12:05.495Z,103188.47
2018-04-18T13:14:32.987Z,103189.92
2018-04-18T13:17:00.434Z,103190.59
2018-04-18T13:19:27.889Z,103189.45
2018-04-18T13:21:55.368Z,103183.66
2018-04-18T13:24:22.816Z,103177.39
2018-04-18T13:26:50.350Z,103179.95
2018-04-18T13:29:17.799Z,103176.59
2018-04-18T13:31:46.401Z,103168.52
2018-04-18T13:34:14.855Z,103170.23
2018-04-18T13:36:42.343Z,103166.70
2018-04-18T13:39:09.797Z,103164.38
2018-04-18T13:41:38.483Z,103172.23
2018-04-18T13:44:05.922Z,103167.99
2018-04-18T13:46:33.420Z,103178.52
2018-04-18T13:49:00.867Z,103167.62
2018-04-18T13:51:28.338Z,103165.09
2018-04-18T13:53:55.784Z,103165.35
2018-04-18T13:56:23.272Z,103167.45
2018-04-18T13:58:51.648Z,103163.77
2018-04-18T14:01:19.129Z,103168.95
2018-04-18T14:03:46.587Z,103171.72
2018-04-18T14:06:14.064Z,103167.38
2018-04-18T14:08:41.512Z,103169.92
2018-04-18T14:11:08.983Z,103168.91
2018-04-18T14:13:37.404Z,103171.03
2018-04-18T14:16:04.995Z,103171.16
2018-04-18T14:18:32.549Z,103164.46
2018-04-18T14:21:00.003Z,103187.61
2018-04-18T14:23:27.500Z,103172.31
2018-04-18T14:25:55.025Z,103170.91
2018-04-18T14:28:22.504Z,103165.58
2018-04-18T14:30:49.951Z,103168.63
2018-04-18T14:33:17.428Z,103174.20
2018-04-18T14:35:44.888Z,103176.84
2018-04-18T14:38:12.424Z,103176.83
2018-04-18T14:40:44.547Z,103180.70
2018-04-18T14:43:12.023Z,103177.86
2018-04-18T14:45:39.479Z,103180.78
2018-04-18T14:48:06.957Z,103180.88
2018-04-18T14:50:34.410Z,103176.13
2018-04-18T14:53:01.883Z,103169.80
2018-04-18T14:55:29.327Z,103173.72
2018-04-18T14:57:56.799Z,103176.09
2018-04-18T15:00:24.247Z,103160.16
2018-04-18T15:02:51.743Z,103170.84
2018-04-18T15:05:19.209Z,103169.86
2018-04-18T15:07:46.695Z,103170.43
2018-04-18T15:10:14.167Z,103168.92
2018-04-18T15:12:41.623Z,103174.18
2018-04-18T15:15:09.103Z,103172.95
2018-04-18T15:17:38.076Z,103171.83
2018-04-18T15:20:07.080Z,103176.95
2018-04-18T15:22:34.531Z,103170.86
2018-04-18T15:25:02.017Z,103174.30
2018-04-18T15:27:33.224Z,103170.50
2018-04-18T15:30:00.680Z,103174.29
2018-04-18T15:32:28.109Z,103182.91
2018-04-18T15:34:55.572Z,103175.30
2018-04-18T15:37:23.005Z,103177.91
2018-04-18T15:39:50.480Z,103177.94
2018-04-18T15:42:17.936Z,103179.33
2018-04-18T15:44:45.452Z,103194.76
2018-04-18T15:47:12.904Z,103189.94
2018-04-18T15:49:40.394Z,103180.69
2018-04-18T15:52:07.848Z,103183.69
2018-04-18T15:54:37.262Z,103186.88
2018-04-18T15:57:04.715Z,103179.19
2018-04-18T15:59:32.413Z,103177.17
2018-04-18T16:01:59.894Z,103184.53
2018-04-18T16:04:28.320Z,103183.49
2018-04-18T16:06:55.815Z,103182.74
2018-04-18T16:09:24.268Z,103186.91
2018-04-18T16:11:51.767Z,103190.04
2018-04-18T16:14:19.224Z,103189.03
2018-04-18T16:16:46.703Z,103184.73
2018-04-18T16:19:14.151Z,103188.91
2018-04-18T16:21:41.643Z,103196.89
2018-04-18T16:24:09.087Z,103185.92
2018-04-18T16:26:36.571Z,103188.83
2018-04-18T16:29:16.113Z,103187.27
2018-04-18T16:31:43.600Z,103196.95
2018-04-18T16:34:11.052Z,103185.03
2018-04-18T16:36:38.525Z,103197.80
2018-04-18T16:39:06.895Z,103193.90
2018-04-18T16:41:35.381Z,103194.28
2018-04-18T16:44:02.877Z,103188.66
2018-04-18T16:46:30.333Z,103194.34
2018-04-18T16:48:58.748Z,103197.87
2018-04-18T16:51:26.192Z,103202.35
2018-04-18T16:53:53.688Z,103196.72
2018-04-18T16:56:22.115Z,103192.80
2018-04-18T16:58:49.606Z,103187.39
2018-04-18T17:01:17.057Z,103198.67
2018-04-18T17:03:44.540Z,103198.67
2018-04-18T17:06:11.995Z,103203.22
2018-04-18T17:08:40.455Z,103195.98
2018-04-18T17:11:07.908Z,103187.12
2018-04-18T17:13:35.391Z,103192.16
2018-04-18T17:16:02.852Z,103190.39
2018-04-18T17:18:30.336Z,103181.63
2018-04-18T17:20:57.783Z,103178.39
2018-04-18T17:23:25.280Z,103185.63
2018-04-18T17:25:52.741Z,103190.88
2018-04-18T17:28:20.235Z,103191.28
2018-04-18T17:30:47.687Z,103194.30
2018-04-18T17:33:15.139Z,103198.38
2018-04-18T17:35:42.623Z,103195.71
2018-04-18T17:38:10.063Z,103198.03
2018-04-18T17:40:37.544Z,103199.15
2018-04-18T17:43:05.895Z,103198.45
2018-04-18T17:45:33.377Z,103198.66
2018-04-18T17:48:00.839Z,103206.74
2018-04-18T17:50:30.289Z,103203.15
2018-04-18T17:52:58.735Z,103205.48
2018-04-18T17:55:26.221Z,103208.92
2018-04-18T17:57:54.587Z,103205.91
2018-04-18T18:00:22.073Z,103203.84
2018-04-18T18:02:49.531Z,103209.23
2018-04-18T18:05:17.012Z,103209.85
2018-04-18T18:07:44.462Z,103210.77
2018-04-18T18:10:11.961Z,103207.28
2018-04-18T18:12:39.415Z,103210.02
2018-04-18T18:15:06.896Z,103214.34
2018-04-18T18:17:35.276Z,103218.09
2018-04-18T18:20:02.855Z,103220.56
2018-04-18T18:22:30.307Z,103219.77
2018-04-18T18:24:57.784Z,103220.53
2018-04-18T18:27:25.232Z,103223.29
2018-04-18T18:29:52.715Z,103225.98
2018-04-18T18:32:20.165Z,103230.83
2018-04-18T18:34:47.652Z,103229.06
2018-04-18T18:37:16.045Z,103230.34
2018-04-18T18:39:43.547Z,103228.32
2018-04-18T18:42:10.992Z,103237.41
2018-04-18T18:44:38.450Z,103237.66
2018-04-18T18:47:05.950Z,103235.98
2018-04-18T18:49:33.408Z,103232.47
2018-04-18T18:52:00.888Z,103234.55
2018-04-18T18:54:28.348Z,103229.59
2018-04-18T18:56:55.929Z,103243.10
2018-04-18T18:59:23.389Z,103247.16
2018-04-18T19:01:50.864Z,103244.23
2018-04-18T19:04:19.218Z,103247.31
2018-04-18T19:06:48.831Z,103246.05
2018-04-18T19:09:16.282Z,103248.64
2018-04-18T19:11:43.758Z,103245.59
2018-04-18T19:14:12.171Z,103253.69
2018-04-18T19:16:39.635Z,103257.25
2018-04-18T19:21:49.884Z,103266.64
2018-04-18T19:24:17.382Z,103266.94
2018-04-18T19:26:44.872Z,103267.55
2018-04-18T19:29:12.341Z,103261.33
2018-04-18T19:31:40.014Z,103263.42
2018-04-18T19:34:07.479Z,103272.64
2018-04-18T19:36:34.972Z,103280.08
2018-04-18T19:39:03.356Z,103273.42
2018-04-18T19:41:30.832Z,103270.45
2018-04-18T19:43:58.308Z,103272.44
2018-04-18T19:46:25.771Z,103273.91
2018-04-18T19:48:53.274Z,103274.22
2018-04-18T19:51:20.732Z,103269.99
2018-04-18T19:53:48.215Z,103282.16
2018-04-18T19:56:17.452Z,103281.32
2018-04-18T19:58:44.991Z,103290.03
2018-04-18T20:01:12.452Z,103281.02
2018-04-18T20:03:39.989Z,103271.39
2018-04-18T20:06:07.530Z,103272.67
2018-04-18T20:08:35.096Z,103280.06
2018-04-18T20:11:03.528Z,103273.91
2018-04-18T20:13:33.195Z,103272.98
2018-04-18T20:16:02.217Z,103271.59
2018-04-18T20:18:30.771Z,103276.16
2018-04-18T20:20:59.201Z,103277.45
2018-04-18T20:23:26.692Z,103269.70
2018-04-18T20:25:54.135Z,103268.62
2018-04-18T20:28:21.615Z,103274.12
2018-04-18T20:30:49.183Z,103278.27
2018-04-18T20:33:16.635Z,103275.61
2018-04-18T20:35:44.210Z,103276.33
2018-04-18T20:38:11.791Z,103276.28
2018-04-18T20:40:39.299Z,103279.69
2018-04-18T20:43:07.756Z,103268.85
2018-04-18T20:45:35.248Z,103269.58
2018-04-18T20:48:02.792Z,103269.81
2018-04-18T20:50:31.610Z,103271.80
2018-04-18T20:53:02.034Z,103271.42
2018-04-18T20:55:29.619Z,103276.92
2018-04-18T20:57:59.533Z,103277.98
2018-04-18T21:00:27.096Z,103280.44
2018-04-18T21:02:54.593Z,103284.70
2018-04-18T21:05:22.175Z,103274.53
2018-04-18T21:07:50.629Z,103276.48
2018-04-18T21:10:18.202Z,103279.97
2018-04-18T21:12:45.662Z,103285.16
2018-04-18T21:15:14.192Z,103279.83
2018-04-18T21:17:41.684Z,103294.03
2018-04-18T21:20:09.165Z,103288.72
2018-04-18T21:22:37.273Z,103285.47
2018-04-18T21:25:04.805Z,103280.93
2018-04-18T21:27:32.312Z,103285.97
2018-04-18T21:29:59.779Z,103284.37
2018-04-18T21:32:27.279Z,103285.75
2018-04-18T21:34:54.776Z,103282.84
2018-04-18T21:37:23.275Z,103285.08
2018-04-18T21:39:50.776Z,103288.20
2018-04-18T21:42:18.292Z,103289.38
2018-04-18T21:44:46.129Z,103282.20
2018-04-18T21:47:22.638Z,103287.86
2018-04-18T21:49:50.092Z,103286.56
2018-04-18T21:52:17.958Z,103287.23
2018-04-18T21:54:45.467Z,103287.70
2018-04-18T21:57:24.414Z,103295.55
2018-04-18T21:59:51.910Z,103300.19
2018-04-18T22:02:21.464Z,103297.49
2018-04-18T22:04:48.980Z,103292.44
2018-04-18T22:07:19.225Z,103288.57
2018-04-18T22:09:46.797Z,103286.19
2018-04-18T22:12:14.264Z,103295.87
2018-04-18T22:14:41.848Z,103292.27
2018-04-18T22:17:09.659Z,103294.03
2018-04-18T22:19:37.128Z,103291.63
2018-04-18T22:22:04.585Z,103295.07
2018-04-18T22:24:33.079Z,103293.91
2018-04-18T22:27:06.187Z,103283.57
2018-04-18T22:29:33.687Z,103290.94
2018-04-18T22:32:02.008Z,103294.80
2018-04-18T22:34:29.510Z,103290.47
2018-04-18T22:36:56.956Z,103281.32
2018-04-18T22:39:24.455Z,103285.74
2018-04-18T22:41:51.919Z,103286.73
2018-04-18T22:44:20.087Z,103295.02
2018-04-18T22:46:47.543Z,103286.84
2018-04-18T22:49:15.051Z,103287.05
2018-04-18T22:51:44.440Z,103289.40
2018-04-18T22:54:12.003Z,103288.27
2018-04-18T22:56:39.546Z,103283.75
2018-04-18T22:59:07.014Z,103282.16
2018-04-18T23:01:34.893Z,103285.86
2018-04-18T23:04:02.409Z,103276.63
2018-04-18T23:06:30.217Z,103274.78
2018-04-18T23:08:57.692Z,103272.52
2018-04-18T23:11:25.199Z,103281.04
2018-04-18T23:13:52.700Z,103278.00
2018-04-18T23:16:20.192Z,103278.70
2018-04-18T23:18:48.499Z,103272.47
2018-04-18T23:21:15.990Z,103267.56
2018-04-18T23:23:43.451Z,103275.23
2018-04-18T23:26:10.935Z,103271.55
2018-04-18T23:28:38.395Z,103273.80
2018-04-18T23:31:05.880Z,103266.70
2018-04-18T23:33:33.341Z,103266.10
2018-04-18T23:36:00.835Z,103256.94
2018-04-18T23:38:29.220Z,103259.16
2018-04-18T23:40:56.688Z,103266.75
2018-04-18T23:43:24.434Z,103270.70
2018-04-18T23:45:53.866Z,103265.73
2018-04-18T23:48:21.366Z,103260.45
2018-04-18T23:50:48.820Z,103256.17
2018-04-18T23:53:16.304Z,103255.73
2018-04-18T23:55:44.816Z,103255.80
2018-04-18T23:58:12.322Z,103256.23
